createdAt,value
2023-10-20T00:01:26.817Z,12.65
2023-10-20T00:04:03.148Z,12.65
2023-10-20T00:06:31.708Z,12.68
2023-10-20T00:11:47.880Z,12.75
2023-10-20T00:14:20.619Z,12.73
2023-10-20T00:20:05.694Z,12.69
2023-10-20T00:25:34.390Z,12.69
2023-10-20T00:28:06.765Z,12.71
2023-10-20T00:30:42.168Z,12.75
2023-10-20T00:33:11.783Z,12.64
2023-10-20T00:35:47.724Z,12.75
2023-10-20T00:38:18.399Z,12.69
2023-10-20T00:40:50.726Z,12.66
2023-10-20T00:43:19.612Z,12.66
2023-10-20T00:45:49.152Z,12.70
2023-10-20T00:48:18.128Z,12.71
2023-10-20T00:50:48.081Z,12.70
2023-10-20T00:53:19.783Z,12.72
2023-10-20T00:55:48.445Z,12.76
2023-10-20T00:58:18.643Z,12.74
2023-10-20T01:00:51.100Z,12.70
2023-10-20T01:03:21.598Z,12.73
2023-10-20T01:05:54.529Z,12.72
2023-10-20T01:08:26.631Z,12.62
2023-10-20T01:10:55.823Z,12.65
2023-10-20T01:13:24.939Z,12.67
2023-10-20T01:15:53.572Z,12.67
2023-10-20T01:18:22.354Z,12.63
2023-10-20T01:20:54.431Z,12.72
2023-10-20T01:23:22.770Z,12.62
2023-10-20T01:25:52.994Z,12.60
2023-10-20T01:28:27.685Z,12.64
2023-10-20T01:31:01.429Z,12.53
2023-10-20T01:33:30.301Z,12.55
2023-10-20T01:36:03.350Z,12.58
2023-10-20T01:38:32.311Z,12.68
2023-10-20T01:41:00.917Z,12.63
2023-10-20T01:43:30.667Z,12.56
2023-10-20T01:46:00.302Z,12.60
2023-10-20T01:48:29.075Z,12.60
2023-10-20T01:50:57.938Z,12.57
2023-10-20T01:53:27.403Z,12.57
2023-10-20T01:55:56.480Z,12.65
2023-10-20T01:58:25.750Z,12.62
2023-10-20T02:00:57.404Z,12.62
2023-10-20T02:03:27.698Z,12.66
2023-10-20T02:05:57.632Z,12.77
2023-10-20T02:08:27.348Z,12.74
2023-10-20T02:10:55.751Z,12.64
2023-10-20T02:13:25.934Z,12.67
2023-10-20T02:15:54.948Z,12.71
2023-10-20T02:18:24.945Z,12.67
2023-10-20T02:21:00.825Z,12.59
2023-10-20T02:23:33.117Z,12.63
2023-10-20T02:26:09.912Z,12.64
2023-10-20T02:28:39.393Z,12.73
2023-10-20T02:31:16.102Z,12.67
2023-10-20T02:33:44.741Z,12.74
2023-10-20T02:36:20.698Z,12.72
2023-10-20T02:38:54.555Z,12.66
2023-10-20T02:41:23.169Z,12.80
2023-10-20T02:43:51.399Z,12.75
2023-10-20T02:46:21.407Z,12.67
2023-10-20T02:48:50.165Z,12.77
2023-10-20T02:51:19.374Z,12.73
2023-10-20T02:53:48.911Z,12.67
2023-10-20T02:56:19.394Z,12.72
2023-10-20T02:58:48.731Z,12.69
2023-10-20T03:01:19.557Z,12.78
2023-10-20T03:03:48.390Z,12.78
2023-10-20T03:06:18.497Z,12.81
2023-10-20T03:08:47.944Z,12.69
2023-10-20T03:11:16.690Z,12.65
2023-10-20T03:13:47.614Z,12.60
2023-10-20T03:16:16.423Z,12.68
2023-10-20T03:18:45.014Z,12.68
2023-10-20T03:21:17.026Z,12.77
2023-10-20T03:26:31.411Z,12.70
2023-10-20T03:29:03.833Z,12.74
2023-10-20T03:31:36.855Z,12.76
2023-10-20T03:34:07.121Z,12.77
2023-10-20T03:36:35.911Z,12.76
2023-10-20T03:39:19.659Z,12.77
2023-10-20T03:41:53.020Z,12.77
2023-10-20T03:44:25.654Z,12.83
2023-10-20T03:47:00.715Z,12.83
2023-10-20T03:49:37.907Z,12.74
2023-10-20T03:52:15.354Z,12.80
2023-10-20T03:54:58.652Z,12.75
2023-10-20T03:57:29.032Z,12.76
2023-10-20T03:59:58.709Z,12.70
2023-10-20T04:02:27.353Z,12.72
2023-10-20T04:04:57.004Z,12.73
2023-10-20T04:07:26.889Z,12.72
2023-10-20T04:09:55.827Z,12.72
2023-10-20T04:12:25.795Z,12.75
2023-10-20T04:14:58.159Z,12.70
2023-10-20T04:17:30.693Z,12.68
2023-10-20T04:20:00.496Z,12.76
2023-10-20T04:22:28.864Z,12.78
2023-10-20T04:24:57.024Z,12.78
2023-10-20T04:27:45.136Z,12.83
2023-10-20T04:30:33.874Z,12.80
2023-10-20T04:33:23.711Z,12.82
2023-10-20T04:36:11.676Z,12.87
2023-10-20T04:38:59.940Z,12.87
2023-10-20T04:41:50.268Z,12.93
2023-10-20T04:44:24.122Z,12.98
2023-10-20T04:47:13.513Z,12.99
2023-10-20T04:49:50.550Z,13.12
2023-10-20T04:52:21.816Z,13.04
2023-10-20T04:55:09.504Z,12.99
2023-10-20T04:57:59.620Z,13.00
2023-10-20T05:00:28.118Z,13.03
2023-10-20T05:03:01.549Z,13.10
2023-10-20T05:05:49.441Z,13.16
2023-10-20T05:08:20.482Z,13.14
2023-10-20T05:10:51.304Z,13.15
2023-10-20T05:13:22.894Z,13.25
2023-10-20T05:15:52.965Z,13.21
2023-10-20T05:18:22.332Z,13.28
2023-10-20T05:20:53.009Z,13.30
2023-10-20T05:23:22.061Z,13.35
2023-10-20T05:25:50.799Z,13.40
2023-10-20T05:28:19.986Z,13.44
2023-10-20T05:30:50.865Z,13.44
2023-10-20T05:33:21.065Z,13.52
2023-10-20T05:35:52.988Z,13.57
2023-10-20T05:38:22.509Z,13.54
2023-10-20T05:40:59.980Z,13.55
2023-10-20T05:43:29.068Z,13.59
2023-10-20T05:45:57.753Z,13.62
2023-10-20T05:48:26.550Z,13.64
2023-10-20T05:51:00.404Z,13.80
2023-10-20T05:53:29.281Z,13.74
2023-10-20T05:55:59.585Z,13.80
2023-10-20T05:58:30.644Z,13.86
2023-10-20T06:01:13.203Z,13.98
2023-10-20T06:03:43.198Z,13.99
2023-10-20T06:06:12.163Z,14.01
2023-10-20T06:08:41.598Z,14.04
2023-10-20T06:11:10.774Z,14.07
2023-10-20T06:14:05.979Z,14.12
2023-10-20T06:16:35.865Z,14.27
2023-10-20T06:19:05.127Z,14.32
2023-10-20T06:21:33.883Z,14.35
2023-10-20T06:46:25.602Z,14.80
2023-10-20T06:53:38.082Z,15.14
2023-10-20T06:56:31.326Z,15.22
2023-10-20T06:59:00.255Z,15.32
2023-10-20T07:09:15.889Z,15.49
2023-10-20T07:11:46.198Z,15.52
2023-10-20T07:14:15.581Z,15.37
2023-10-20T07:16:47.278Z,15.38
2023-10-20T07:19:15.812Z,15.37
2023-10-20T07:21:44.452Z,15.42
2023-10-20T07:24:12.965Z,15.45
2023-10-20T07:26:41.646Z,15.53
2023-10-20T07:29:11.114Z,15.47
2023-10-20T07:31:41.457Z,15.49
2023-10-20T07:34:11.154Z,15.62
2023-10-20T07:36:39.500Z,15.70
2023-10-20T07:39:10.260Z,15.63
2023-10-20T07:41:39.237Z,15.66
2023-10-20T07:44:07.758Z,15.74
2023-10-20T07:46:37.139Z,15.77
2023-10-20T07:49:06.037Z,15.78
2023-10-20T07:51:34.737Z,15.81
2023-10-20T07:54:03.318Z,15.85
2023-10-20T07:56:32.313Z,15.92
2023-10-20T07:59:00.682Z,16.00
2023-10-20T08:01:29.573Z,16.05
2023-10-20T08:03:58.361Z,16.11
2023-10-20T08:06:28.754Z,16.04
2023-10-20T08:08:57.214Z,16.09
2023-10-20T08:11:25.607Z,16.10
2023-10-20T08:13:55.391Z,16.22
2023-10-20T08:16:24.333Z,16.17
2023-10-20T08:18:54.974Z,16.16
2023-10-20T08:21:27.805Z,16.08
2023-10-20T08:27:05.244Z,16.13
2023-10-20T08:29:33.920Z,16.22
2023-10-20T08:32:03.491Z,16.33
2023-10-20T08:34:34.542Z,16.25
2023-10-20T08:37:04.473Z,16.30
2023-10-20T08:39:33.401Z,16.35
2023-10-20T08:42:02.143Z,16.39
2023-10-20T08:44:31.884Z,16.41
2023-10-20T08:47:01.522Z,16.46
2023-10-20T08:49:30.401Z,16.54
2023-10-20T08:51:59.742Z,16.52
2023-10-20T08:54:28.750Z,16.54
2023-10-20T08:56:57.174Z,16.71
2023-10-20T08:59:27.826Z,16.62
2023-10-20T09:01:57.037Z,16.69
2023-10-20T09:04:28.824Z,16.79
2023-10-20T09:06:58.208Z,16.89
2023-10-20T17:41:17.963Z,17.30
2023-10-20T17:43:47.669Z,17.27
2023-10-20T17:46:23.712Z,18.64
2023-10-20T17:51:39.137Z,17.37
2023-10-20T17:54:08.611Z,17.39
2023-10-20T17:56:39.457Z,17.43
2023-10-20T17:59:15.094Z,17.56
2023-10-20T18:01:58.229Z,17.62
2023-10-20T18:04:38.135Z,17.62
2023-10-20T18:07:09.357Z,17.61
2023-10-20T18:09:38.619Z,17.60
2023-10-20T18:12:08.251Z,17.53
2023-10-20T18:14:37.695Z,17.51
2023-10-20T18:17:08.084Z,17.41
2023-10-20T18:19:41.679Z,17.38
2023-10-20T18:22:10.209Z,17.34
2023-10-20T18:24:39.670Z,17.25
2023-10-20T18:27:11.645Z,17.22
2023-10-20T18:29:41.332Z,17.11
2023-10-20T18:32:11.833Z,17.09
2023-10-20T18:34:43.084Z,17.03
2023-10-20T18:37:16.256Z,17.00
2023-10-20T18:39:46.345Z,16.89
2023-10-20T18:42:18.555Z,16.84
2023-10-20T18:44:49.110Z,16.79
2023-10-20T18:47:19.325Z,16.80
2023-10-20T18:49:52.901Z,16.75
2023-10-20T18:52:25.869Z,16.73
2023-10-20T19:11:23.846Z,16.81
2023-10-20T19:16:52.732Z,16.80
2023-10-20T19:19:23.279Z,16.74
2023-10-20T19:21:54.473Z,16.76
2023-10-20T19:27:12.001Z,16.76
2023-10-20T19:49:24.556Z,16.65
2023-10-20T19:57:31.740Z,16.39
2023-10-20T20:00:09.030Z,16.26
2023-10-20T20:02:46.190Z,16.12
2023-10-20T20:05:15.633Z,16.07
2023-10-20T20:08:10.945Z,15.99
2023-10-20T20:10:39.235Z,15.93
2023-10-20T20:13:07.437Z,15.83
2023-10-20T20:15:36.724Z,15.80
2023-10-20T20:18:06.205Z,15.83
2023-10-20T20:20:35.323Z,15.80
2023-10-20T20:23:04.459Z,15.88
2023-10-20T20:25:34.197Z,15.87
2023-10-20T20:28:02.918Z,15.91
2023-10-20T20:30:31.558Z,15.92
2023-10-20T20:33:00.803Z,15.92
2023-10-20T20:35:31.913Z,15.85
2023-10-20T20:38:00.985Z,15.86
2023-10-20T20:40:29.481Z,15.86
2023-10-20T20:42:58.886Z,15.82
2023-10-20T20:45:27.589Z,15.70
2023-10-20T20:47:56.203Z,15.72
2023-10-20T20:50:33.294Z,15.66
2023-10-20T20:53:07.840Z,15.65
2023-10-20T20:55:39.774Z,15.57
2023-10-20T20:58:08.926Z,15.45
2023-10-20T21:00:42.530Z,15.35
2023-10-20T21:06:02.005Z,15.11
2023-10-20T21:08:30.560Z,15.16
2023-10-20T21:11:18.965Z,15.32
2023-10-20T21:13:54.120Z,15.47
2023-10-20T21:16:23.815Z,15.49
2023-10-20T21:19:02.841Z,15.47
2023-10-20T21:21:31.655Z,15.45
2023-10-20T21:24:06.972Z,15.41
2023-10-20T21:26:37.021Z,15.46
2023-10-20T21:29:06.034Z,15.39
2023-10-20T21:31:34.703Z,15.40
2023-10-20T21:34:04.352Z,15.36
2023-10-20T21:36:43.926Z,15.36
2023-10-20T21:44:43.723Z,15.28
2023-10-20T21:47:14.519Z,15.24
2023-10-20T21:49:46.286Z,15.19
2023-10-20T21:55:19.047Z,15.25
2023-10-20T21:57:48.555Z,15.24
2023-10-20T22:00:19.025Z,15.22
2023-10-20T22:02:47.814Z,15.18
2023-10-20T22:05:19.581Z,15.16
2023-10-20T22:07:50.575Z,15.15
2023-10-20T22:10:19.306Z,15.21
2023-10-20T22:12:52.999Z,15.25
2023-10-20T22:15:22.893Z,15.30
2023-10-20T22:17:54.450Z,15.29
2023-10-20T22:20:33.268Z,15.27
2023-10-20T22:23:02.505Z,15.23
2023-10-20T22:25:34.899Z,15.23
2023-10-20T22:30:48.345Z,15.12
2023-10-20T22:33:22.947Z,15.09
2023-10-20T22:41:20.796Z,15.06
2023-10-20T22:46:52.157Z,15.24
2023-10-20T22:57:53.921Z,15.17
2023-10-20T23:00:25.051Z,15.11
2023-10-20T23:03:00.590Z,15.13
2023-10-20T23:08:45.350Z,15.06
2023-10-20T23:11:16.222Z,15.11
2023-10-20T23:16:34.733Z,14.96
2023-10-20T23:19:05.893Z,14.99
2023-10-20T23:29:48.143Z,14.71
2023-10-20T23:32:17.426Z,14.62
2023-10-20T23:37:29.354Z,14.56
2023-10-20T23:40:00.408Z,14.50
2023-10-20T23:42:30.385Z,14.55
2023-10-20T23:45:07.407Z,14.60
2023-10-20T23:47:53.466Z,14.58
2023-10-20T23:56:00.685Z,14.37
2023-10-20T23:58:30.236Z,14.45
